createdAt,value
2023-04-29T00:01:36.447Z,6.96
2023-04-29T00:04:04.528Z,6.96
2023-04-29T00:06:32.599Z,6.91
2023-04-29T00:09:00.468Z,6.73
2023-04-29T00:11:28.296Z,6.90
2023-04-29T00:13:56.212Z,6.84
2023-04-29T00:16:26.208Z,6.76
2023-04-29T00:18:54.407Z,6.79
2023-04-29T00:21:22.235Z,6.90
2023-04-29T00:23:50.147Z,6.83
2023-04-29T00:26:18.056Z,6.98
2023-04-29T00:28:46.053Z,6.97
2023-04-29T00:31:14.690Z,6.93
2023-04-29T00:33:44.641Z,6.97
2023-04-29T00:36:12.602Z,6.93
2023-04-29T00:38:40.476Z,6.83
2023-04-29T00:41:08.451Z,6.84
2023-04-29T00:43:36.365Z,6.75
2023-04-29T00:46:04.521Z,6.78
2023-04-29T00:48:33.108Z,6.65
2023-04-29T00:51:02.836Z,6.68
2023-04-29T00:53:31.573Z,6.63
2023-04-29T00:56:00.815Z,6.64
2023-04-29T00:58:33.540Z,6.61
2023-04-29T01:01:03.748Z,6.61
2023-04-29T01:03:32.977Z,6.64
2023-04-29T01:06:10.486Z,6.66
2023-04-29T01:08:49.630Z,6.62
2023-04-29T01:11:24.250Z,6.65
2023-04-29T01:13:55.952Z,6.57
2023-04-29T01:16:30.265Z,6.50
2023-04-29T01:19:01.456Z,6.46
2023-04-29T01:21:32.200Z,6.38
2023-04-29T01:24:01.980Z,6.28
2023-04-29T01:26:35.366Z,6.20
2023-04-29T01:29:19.839Z,6.13
2023-04-29T01:31:52.760Z,5.99
2023-04-29T01:34:27.511Z,5.99
2023-04-29T01:37:05.684Z,5.94
2023-04-29T01:39:42.822Z,5.92
2023-04-29T01:42:19.300Z,5.93
2023-04-29T01:44:51.159Z,5.80
2023-04-29T01:47:20.049Z,5.80
2023-04-29T01:49:47.899Z,5.79
2023-04-29T01:52:15.794Z,5.74
2023-04-29T01:54:45.332Z,5.71
2023-04-29T01:57:13.302Z,5.66
2023-04-29T01:59:42.099Z,5.71
2023-04-29T02:02:10.430Z,5.63
2023-04-29T02:04:38.451Z,5.62
2023-04-29T02:07:06.464Z,5.55
2023-04-29T02:09:34.387Z,5.59
2023-04-29T02:12:04.726Z,5.59
2023-04-29T02:14:36.817Z,5.56
2023-04-29T02:17:05.728Z,5.50
2023-04-29T02:19:33.705Z,5.50
2023-04-29T02:22:01.664Z,5.48
2023-04-29T02:24:29.636Z,5.46
2023-04-29T02:26:57.485Z,5.40
2023-04-29T02:29:29.850Z,5.35
2023-04-29T02:31:57.759Z,5.35
2023-04-29T02:34:25.667Z,5.30
2023-04-29T02:36:53.610Z,5.22
2023-04-29T02:39:21.720Z,5.17
2023-04-29T02:41:50.157Z,5.18
2023-04-29T02:44:18.051Z,5.12
2023-04-29T02:46:47.912Z,5.10
2023-04-29T02:49:15.796Z,5.09
2023-04-29T02:51:43.664Z,4.98
2023-04-29T02:54:11.959Z,4.86
2023-04-29T02:56:39.823Z,4.87
2023-04-29T02:59:07.708Z,4.85
2023-04-29T03:01:35.681Z,4.84
2023-04-29T03:04:05.522Z,4.84
2023-04-29T03:06:33.528Z,4.84
2023-04-29T03:09:01.393Z,4.83
2023-04-29T03:11:29.222Z,4.77
2023-04-29T03:13:57.467Z,4.67
2023-04-29T03:16:25.628Z,4.68
2023-04-29T03:18:53.655Z,4.70
2023-04-29T03:21:22.891Z,4.75
2023-04-29T03:23:50.786Z,4.65
2023-04-29T03:26:18.762Z,4.67
2023-04-29T03:28:46.794Z,4.75
2023-04-29T03:31:16.699Z,4.68
2023-04-29T03:33:44.785Z,4.75
2023-04-29T03:36:13.411Z,4.85
2023-04-29T03:38:42.673Z,4.85
2023-04-29T03:41:10.759Z,4.87
2023-04-29T03:43:38.749Z,4.84
2023-04-29T03:46:06.682Z,4.84
2023-04-29T03:48:34.555Z,4.94
2023-04-29T03:51:02.534Z,4.95
2023-04-29T03:53:30.477Z,4.98
2023-04-29T03:55:59.783Z,5.00
2023-04-29T03:58:28.171Z,5.06
2023-04-29T04:00:56.434Z,5.11
2023-04-29T04:03:26.123Z,5.15
2023-04-29T04:05:54.161Z,5.24
2023-04-29T04:08:22.029Z,5.29
2023-04-29T04:10:49.920Z,5.44
2023-04-29T04:13:19.163Z,5.60
2023-04-29T04:15:51.663Z,5.67
2023-04-29T04:18:19.700Z,5.71
2023-04-29T04:20:47.714Z,5.82
2023-04-29T04:23:15.750Z,5.83
2023-04-29T04:25:47.045Z,5.94
2023-04-29T04:28:14.979Z,5.96
2023-04-29T04:30:45.871Z,5.99
2023-04-29T04:33:13.801Z,5.99
2023-04-29T04:35:41.701Z,6.02
2023-04-29T04:38:11.404Z,6.13
2023-04-29T04:40:42.509Z,6.12
2023-04-29T04:43:10.669Z,6.09
2023-04-29T04:45:38.764Z,6.05
2023-04-29T04:48:08.197Z,6.16
2023-04-29T04:50:36.139Z,6.21
2023-04-29T04:53:03.979Z,6.37
2023-04-29T04:55:33.528Z,6.40
2023-04-29T04:58:01.419Z,6.47
2023-04-29T05:00:29.297Z,6.58
2023-04-29T05:02:57.375Z,6.64
2023-04-29T05:05:26.946Z,6.68
2023-04-29T05:07:54.878Z,6.87
2023-04-29T05:10:26.470Z,6.95
2023-04-29T05:12:54.399Z,7.09
2023-04-29T05:15:22.311Z,7.16
2023-04-29T05:17:50.209Z,7.19
2023-04-29T05:20:18.230Z,7.31
2023-04-29T05:22:47.605Z,7.45
2023-04-29T05:25:15.656Z,7.55
2023-04-29T05:27:43.550Z,7.63
2023-04-29T05:30:12.254Z,7.62
2023-04-29T05:32:40.758Z,7.71
2023-04-29T05:35:09.693Z,7.72
2023-04-29T05:37:37.631Z,7.80
2023-04-29T05:40:10.423Z,7.72
2023-04-29T05:42:38.282Z,7.81
2023-04-29T05:45:07.008Z,7.98
2023-04-29T05:47:34.987Z,8.20
2023-04-29T05:50:02.987Z,8.33
2023-04-29T05:52:30.996Z,8.48
2023-04-29T05:54:58.875Z,8.32
2023-04-29T05:57:28.278Z,8.40
2023-04-29T05:59:56.362Z,8.47
2023-04-29T06:02:24.402Z,8.52
2023-04-29T06:04:53.352Z,8.61
2023-04-29T06:07:21.828Z,8.65
2023-04-29T06:09:49.863Z,8.63
2023-04-29T06:12:17.805Z,8.75
2023-04-29T06:14:47.065Z,8.71
2023-04-29T06:17:15.349Z,8.72
2023-04-29T06:19:43.367Z,8.74
2023-04-29T06:22:11.242Z,8.75
2023-04-29T06:24:39.248Z,8.73
2023-04-29T06:27:07.150Z,8.66
2023-04-29T06:29:35.015Z,8.65
2023-04-29T06:32:04.525Z,8.73
2023-04-29T06:34:32.514Z,8.77
2023-04-29T06:37:00.408Z,8.91
2023-04-29T06:39:28.386Z,9.10
2023-04-29T06:41:56.699Z,9.09
2023-04-29T06:44:24.709Z,9.27
2023-04-29T06:46:52.708Z,9.37
2023-04-29T06:49:22.438Z,9.57
2023-04-29T06:51:50.481Z,9.69
2023-04-29T06:54:18.399Z,9.75
2023-04-29T06:56:47.284Z,9.85
2023-04-29T06:59:15.433Z,9.90
2023-04-29T07:01:44.700Z,9.95
2023-04-29T07:04:13.806Z,9.88
2023-04-29T07:06:46.835Z,9.93
2023-04-29T07:09:15.068Z,9.85
2023-04-29T07:11:43.212Z,9.82
2023-04-29T07:14:11.382Z,9.94
2023-04-29T07:16:39.357Z,10.06
2023-04-29T07:19:07.204Z,10.21
2023-04-29T07:21:35.926Z,10.26
2023-04-29T07:24:05.833Z,10.30
2023-04-29T07:26:33.916Z,10.34
2023-04-29T07:29:01.768Z,10.33
2023-04-29T07:31:29.941Z,10.39
2023-04-29T07:33:58.217Z,10.39
2023-04-29T07:36:26.116Z,10.53
2023-04-29T07:38:54.016Z,10.54
2023-04-29T07:41:23.269Z,10.66
2023-04-29T07:43:51.148Z,10.83
2023-04-29T07:46:19.157Z,11.07
2023-04-29T07:48:47.044Z,11.17
2023-04-29T07:51:15.346Z,11.19
2023-04-29T07:53:43.500Z,11.52
2023-04-29T07:56:11.603Z,11.84
2023-04-29T07:58:40.854Z,11.94
2023-04-29T08:01:10.253Z,12.17
2023-04-29T08:03:40.897Z,12.56
2023-04-29T08:06:10.133Z,12.77
2023-04-29T08:08:38.221Z,12.86
2023-04-29T08:11:06.812Z,12.78
2023-04-29T08:13:34.744Z,12.81
2023-04-29T08:16:04.082Z,12.93
2023-04-29T08:18:32.014Z,13.01
2023-04-29T08:20:59.973Z,13.11
2023-04-29T08:23:27.866Z,13.42
2023-04-29T08:25:56.099Z,13.70
2023-04-29T08:28:24.140Z,13.88
2023-04-29T08:30:52.253Z,13.99
2023-04-29T08:33:22.455Z,14.05
2023-04-29T08:35:51.046Z,14.16
2023-04-29T08:38:18.946Z,14.40
2023-04-29T08:40:47.608Z,14.37
2023-04-29T08:43:15.928Z,14.51
2023-04-29T08:45:44.801Z,14.65
2023-04-29T08:48:13.396Z,14.77
2023-04-29T08:50:43.613Z,14.64
2023-04-29T08:53:12.908Z,14.58
2023-04-29T08:55:43.611Z,14.76
2023-04-29T08:58:14.771Z,14.83
2023-04-29T09:00:44.766Z,14.87
2023-04-29T09:03:21.111Z,15.11
2023-04-29T09:05:55.079Z,14.93
2023-04-29T09:08:23.962Z,15.31
2023-04-29T09:10:52.843Z,15.71
2023-04-29T09:13:27.933Z,16.12
2023-04-29T09:19:37.790Z,16.26
2023-04-29T09:22:08.402Z,16.33
2023-04-29T09:24:38.019Z,16.34
2023-04-29T09:27:05.981Z,16.43
2023-04-29T09:29:35.019Z,16.50
2023-04-29T09:32:19.628Z,16.76
2023-04-29T09:34:47.543Z,16.97
2023-04-29T09:37:28.013Z,16.84
2023-04-29T09:39:56.567Z,16.50
2023-04-29T09:42:24.560Z,16.51
2023-04-29T09:44:53.151Z,16.60
2023-04-29T09:47:31.847Z,16.30
2023-04-29T09:50:12.710Z,16.64
2023-04-29T09:52:43.389Z,17.03
2023-04-29T09:55:12.745Z,17.13
2023-04-29T09:57:44.904Z,17.31
2023-04-29T10:00:14.719Z,17.35
2023-04-29T10:02:43.984Z,17.57
2023-04-29T10:05:13.369Z,17.66
2023-04-29T10:07:43.619Z,17.51
2023-04-29T10:10:13.758Z,17.43
2023-04-29T10:12:42.382Z,17.55
2023-04-29T10:15:19.203Z,17.48
2023-04-29T10:17:50.664Z,17.61
2023-04-29T10:20:24.538Z,17.69
2023-04-29T10:22:57.124Z,17.92
2023-04-29T10:25:28.197Z,18.10
2023-04-29T10:27:57.373Z,18.44
2023-04-29T10:30:25.513Z,18.44
2023-04-29T10:32:53.662Z,18.25
2023-04-29T10:35:25.817Z,18.26
2023-04-29T10:37:57.064Z,17.88
2023-04-29T10:40:32.616Z,17.87
2023-04-29T10:43:01.290Z,17.74
2023-04-29T10:45:31.869Z,17.22
2023-04-29T10:48:13.668Z,16.82
2023-04-29T10:51:09.880Z,17.09
2023-04-29T10:53:59.600Z,17.51
2023-04-29T10:56:38.275Z,17.78
2023-04-29T10:59:06.705Z,18.08
2023-04-29T11:01:45.917Z,18.06
2023-04-29T11:04:15.235Z,18.22
2023-04-29T11:06:46.081Z,18.15
2023-04-29T11:09:19.756Z,18.02
2023-04-29T11:11:50.181Z,17.73
2023-04-29T11:14:24.848Z,17.32
2023-04-29T11:16:54.761Z,17.09
2023-04-29T11:19:25.709Z,16.98
2023-04-29T11:22:16.058Z,16.89
2023-04-29T11:25:04.058Z,16.82
2023-04-29T11:27:33.680Z,16.87
2023-04-29T11:30:04.126Z,16.99
2023-04-29T11:32:34.049Z,16.98
2023-04-29T11:35:12.206Z,17.06
2023-04-29T11:37:41.399Z,16.97
2023-04-29T11:40:12.303Z,16.51
2023-04-29T11:42:43.542Z,16.41
2023-04-29T11:45:12.424Z,16.49
2023-04-29T11:47:44.905Z,16.44
2023-04-29T11:50:13.642Z,16.52
2023-04-29T11:52:41.732Z,16.64
2023-04-29T11:55:11.910Z,16.57
2023-04-29T11:57:40.270Z,16.45
2023-04-29T12:00:12.874Z,16.24
2023-04-29T12:02:44.836Z,16.13
2023-04-29T12:05:15.857Z,15.91
2023-04-29T12:07:44.520Z,15.94
2023-04-29T12:10:13.912Z,15.88
2023-04-29T12:12:43.777Z,15.72
2023-04-29T12:15:12.896Z,15.65
2023-04-29T12:17:41.345Z,15.60
2023-04-29T12:20:12.749Z,15.58
2023-04-29T12:22:40.947Z,15.69
2023-04-29T12:25:10.000Z,15.80
2023-04-29T12:27:41.475Z,15.87
2023-04-29T12:30:10.357Z,15.98
2023-04-29T12:32:39.272Z,15.87
2023-04-29T12:35:16.544Z,16.07
2023-04-29T12:37:44.528Z,15.91
2023-04-29T12:40:16.756Z,16.02
2023-04-29T12:42:46.657Z,16.05
2023-04-29T12:45:28.109Z,16.09
2023-04-29T12:47:57.561Z,16.15
2023-04-29T12:50:32.967Z,16.29
2023-04-29T12:53:01.489Z,16.25
2023-04-29T12:55:29.472Z,16.23
2023-04-29T12:58:00.861Z,16.21
2023-04-29T13:00:29.027Z,16.40
2023-04-29T13:02:57.304Z,16.49
2023-04-29T13:05:25.333Z,16.63
2023-04-29T13:07:54.094Z,16.54
2023-04-29T13:10:22.237Z,16.88
2023-04-29T13:12:50.167Z,16.88
2023-04-29T13:15:19.535Z,16.95
2023-04-29T13:17:47.462Z,16.99
2023-04-29T13:20:15.399Z,17.16
2023-04-29T13:22:43.654Z,17.06
2023-04-29T13:25:12.103Z,16.84
2023-04-29T13:27:40.229Z,16.95
2023-04-29T13:30:09.411Z,16.95
2023-04-29T13:32:45.015Z,17.03
2023-04-29T13:35:17.434Z,16.90
2023-04-29T13:37:45.540Z,17.10
2023-04-29T13:40:19.929Z,17.24
2023-04-29T13:42:50.400Z,17.18
2023-04-29T13:45:21.404Z,17.52
2023-04-29T13:50:47.221Z,18.10
2023-04-29T13:53:41.188Z,18.32
2023-04-29T14:01:37.802Z,19.10
2023-04-29T14:03:54.558Z,19.02
2023-04-29T14:06:22.530Z,18.97
2023-04-29T14:08:50.496Z,19.18
2023-04-29T14:11:19.711Z,19.16
2023-04-29T14:13:47.673Z,19.16
2023-04-29T14:16:15.619Z,19.42
2023-04-29T14:18:43.587Z,20.25
2023-04-29T14:21:12.881Z,20.84
2023-04-29T14:23:46.342Z,21.29
2023-04-29T14:26:27.270Z,21.39
2023-04-29T14:28:58.842Z,21.28
2023-04-29T14:31:29.256Z,21.73
2023-04-29T14:34:00.909Z,21.98
2023-04-29T14:36:30.421Z,22.25
2023-04-29T14:39:04.480Z,22.15
2023-04-29T14:41:32.424Z,21.71
2023-04-29T14:44:00.287Z,21.48
2023-04-29T14:46:32.770Z,19.95
2023-04-29T14:49:06.121Z,19.99
2023-04-29T14:51:39.466Z,20.00
2023-04-29T14:54:07.740Z,19.88
2023-04-29T14:56:38.283Z,19.78
2023-04-29T14:59:08.719Z,19.57
2023-04-29T15:01:36.942Z,19.11
2023-04-29T15:04:07.997Z,19.21
2023-04-29T15:06:40.830Z,18.86
2023-04-29T15:09:09.073Z,18.63
2023-04-29T15:11:37.204Z,17.92
2023-04-29T15:14:07.982Z,17.80
2023-04-29T15:17:53.289Z,17.27
2023-04-29T15:20:26.187Z,17.15
2023-04-29T15:22:54.751Z,17.32
2023-04-29T15:25:27.509Z,17.24
2023-04-29T15:27:59.242Z,17.17
2023-04-29T15:30:30.585Z,17.12
2023-04-29T15:33:02.366Z,16.89
2023-04-29T15:35:32.751Z,16.68
2023-04-29T15:38:03.459Z,16.56
2023-04-29T15:40:33.949Z,16.65
2023-04-29T15:43:01.966Z,16.53
2023-04-29T15:45:29.896Z,16.48
2023-04-29T15:47:59.195Z,16.44
2023-04-29T15:50:27.106Z,16.45
2023-04-29T15:52:56.019Z,16.36
2023-04-29T15:55:23.891Z,16.24
2023-04-29T15:57:51.804Z,16.26
2023-04-29T16:00:19.761Z,16.23
2023-04-29T16:02:47.648Z,16.23
2023-04-29T16:05:17.143Z,16.27
2023-04-29T16:07:45.125Z,16.29
2023-04-29T16:10:13.037Z,16.26
2023-04-29T16:12:41.029Z,16.27
2023-04-29T16:15:10.154Z,16.31
2023-04-29T16:17:38.117Z,16.33
2023-04-29T16:20:06.957Z,16.40
2023-04-29T16:22:36.333Z,16.51
2023-04-29T16:25:04.386Z,16.47
2023-04-29T16:27:32.370Z,16.55
2023-04-29T16:30:00.725Z,16.47
2023-04-29T16:32:29.229Z,16.44
2023-04-29T16:34:58.114Z,16.38
2023-04-29T16:37:26.909Z,16.28
2023-04-29T16:39:56.269Z,16.19
2023-04-29T16:42:24.105Z,16.18
2023-04-29T16:44:52.001Z,16.15
2023-04-29T16:47:20.372Z,16.15
2023-04-29T16:49:48.482Z,16.06
2023-04-29T16:52:16.382Z,15.88
2023-04-29T16:54:44.257Z,15.47
2023-04-29T16:57:14.588Z,15.18
2023-04-29T16:59:42.447Z,15.07
2023-04-29T17:02:10.767Z,14.92
2023-04-29T17:04:38.844Z,14.79
2023-04-29T17:07:06.814Z,14.56
2023-04-29T17:09:34.989Z,14.64
2023-04-29T17:12:03.843Z,14.60
2023-04-29T17:14:33.147Z,14.65
2023-04-29T17:17:01.044Z,14.58
2023-04-29T17:19:28.952Z,14.50
2023-04-29T17:21:57.011Z,14.41
2023-04-29T17:24:26.595Z,14.18
2023-04-29T17:26:54.501Z,14.20
2023-04-29T17:29:22.349Z,14.05
2023-04-29T17:31:59.670Z,14.16
2023-04-29T17:34:29.877Z,14.01
2023-04-29T17:36:57.991Z,13.95
2023-04-29T17:39:26.046Z,13.95
2023-04-29T17:41:53.954Z,14.06
2023-04-29T17:44:23.449Z,14.13
2023-04-29T17:46:53.032Z,14.15
2023-04-29T17:49:21.133Z,14.17
2023-04-29T17:51:49.010Z,14.16
2023-04-29T17:54:17.020Z,14.17
2023-04-29T17:56:44.927Z,14.23
2023-04-29T17:59:12.797Z,14.09
2023-04-29T18:01:40.796Z,14.23
2023-04-29T18:04:10.204Z,14.29
2023-04-29T18:06:38.160Z,14.34
2023-04-29T18:09:06.386Z,14.53
2023-04-29T18:11:34.245Z,14.50
2023-04-29T18:14:02.306Z,14.54
2023-04-29T18:16:30.251Z,14.50
2023-04-29T18:18:58.869Z,14.63
2023-04-29T18:21:29.028Z,14.73
2023-04-29T18:23:57.628Z,14.78
2023-04-29T18:26:26.205Z,14.91
2023-04-29T18:28:54.065Z,14.83
2023-04-29T18:31:23.282Z,14.86
2023-04-29T18:33:51.274Z,14.80
2023-04-29T18:36:21.248Z,14.73
2023-04-29T18:38:50.655Z,14.75
2023-04-29T18:41:18.585Z,14.65
2023-04-29T18:43:46.523Z,14.71
2023-04-29T18:46:14.538Z,14.83
2023-04-29T18:48:42.740Z,14.86
2023-04-29T18:51:10.880Z,14.77
2023-04-29T18:53:38.814Z,14.71
2023-04-29T18:56:08.616Z,14.62
2023-04-29T18:58:36.625Z,14.59
2023-04-29T19:01:07.705Z,14.56
2023-04-29T19:03:35.877Z,14.54
2023-04-29T19:06:03.939Z,14.57
2023-04-29T19:08:31.827Z,14.50
2023-04-29T19:11:00.767Z,14.49
2023-04-29T19:13:30.220Z,14.48
2023-04-29T19:15:58.684Z,14.52
2023-04-29T19:18:26.592Z,14.52
2023-04-29T19:20:56.075Z,14.50
2023-04-29T19:23:24.666Z,14.57
2023-04-29T19:25:52.566Z,14.52
2023-04-29T19:28:20.901Z,14.53
2023-04-29T19:30:50.198Z,14.52
2023-04-29T19:33:18.061Z,14.48
2023-04-29T19:35:45.962Z,14.44
2023-04-29T19:38:14.220Z,14.34
2023-04-29T19:40:44.821Z,14.34
2023-04-29T19:43:13.396Z,14.26
2023-04-29T19:45:41.285Z,14.35
2023-04-29T19:48:10.818Z,14.35
2023-04-29T19:50:40.106Z,14.42
2023-04-29T19:53:08.515Z,14.35
2023-04-29T19:55:36.465Z,14.33
2023-04-29T19:58:04.362Z,14.25
2023-04-29T20:00:32.470Z,14.15
2023-04-29T20:03:02.152Z,14.11
2023-04-29T20:05:31.530Z,14.12
2023-04-29T20:07:59.412Z,13.99
2023-04-29T20:10:29.800Z,13.82
2023-04-29T20:12:58.032Z,13.70
2023-04-29T20:15:26.198Z,13.75
2023-04-29T20:17:54.174Z,13.70
2023-04-29T20:20:25.119Z,13.64
2023-04-29T20:22:58.031Z,13.75
2023-04-29T20:25:27.237Z,13.78
2023-04-29T20:27:55.352Z,13.88
2023-04-29T20:30:23.479Z,13.80
2023-04-29T20:32:51.629Z,13.86
2023-04-29T20:35:20.784Z,13.94
2023-04-29T20:37:48.697Z,13.92
2023-04-29T20:40:18.422Z,13.82
2023-04-29T20:42:47.088Z,13.86
2023-04-29T20:45:15.236Z,13.88
2023-04-29T20:47:44.055Z,13.93
2023-04-29T20:50:12.434Z,13.92
2023-04-29T20:52:40.406Z,13.93
2023-04-29T20:55:09.495Z,13.84
2023-04-29T20:57:39.622Z,13.81
2023-04-29T21:00:09.705Z,13.84
2023-04-29T21:02:37.734Z,13.70
2023-04-29T21:05:06.436Z,13.60
2023-04-29T21:07:34.631Z,13.56
2023-04-29T21:10:02.659Z,13.43
2023-04-29T21:12:30.587Z,13.29
2023-04-29T21:15:00.320Z,13.22
2023-04-29T21:17:28.692Z,13.12
2023-04-29T21:19:57.091Z,12.98
2023-04-29T21:22:24.952Z,13.08
2023-04-29T21:24:52.898Z,12.99
2023-04-29T21:27:21.478Z,12.85
2023-04-29T21:29:49.473Z,12.99
2023-04-29T21:32:21.695Z,12.99
2023-04-29T21:34:49.980Z,12.99
2023-04-29T21:37:17.877Z,12.93
2023-04-29T21:39:45.735Z,12.94
2023-04-29T21:42:14.719Z,12.92
2023-04-29T21:44:42.764Z,12.93
2023-04-29T21:47:10.728Z,12.89
2023-04-29T21:49:39.996Z,12.86
2023-04-29T21:52:07.963Z,12.87
2023-04-29T21:54:35.913Z,12.84
2023-04-29T21:57:03.916Z,12.78
2023-04-29T21:59:34.507Z,12.87
2023-04-29T22:02:14.348Z,12.86
2023-04-29T22:04:43.720Z,12.85
2023-04-29T22:07:11.591Z,12.77
2023-04-29T22:09:39.554Z,12.69
2023-04-29T22:12:07.442Z,12.70
2023-04-29T22:14:35.308Z,12.65
2023-04-29T22:17:03.145Z,12.68
2023-04-29T22:19:31.218Z,12.65
2023-04-29T22:22:01.081Z,12.59
2023-04-29T22:24:29.006Z,12.62
2023-04-29T22:26:57.100Z,12.58
2023-04-29T22:29:25.099Z,12.58
2023-04-29T22:31:53.043Z,12.61
2023-04-29T22:34:21.033Z,12.64
2023-04-29T22:36:48.873Z,12.67
2023-04-29T22:39:18.101Z,12.61
2023-04-29T22:41:45.981Z,12.65
2023-04-29T22:44:13.975Z,12.61
2023-04-29T22:46:41.946Z,12.56
2023-04-29T22:49:09.920Z,12.50
2023-04-29T22:51:37.798Z,12.33
2023-04-29T22:54:05.813Z,12.29
2023-04-29T22:56:35.059Z,12.33
2023-04-29T22:59:03.035Z,12.21
2023-04-29T23:01:30.898Z,12.13
2023-04-29T23:03:58.754Z,12.02
2023-04-29T23:06:26.885Z,11.94
2023-04-29T23:08:55.011Z,11.97
2023-04-29T23:11:23.096Z,11.91
2023-04-29T23:13:52.888Z,11.98
2023-04-29T23:16:20.843Z,11.94
2023-04-29T23:18:48.729Z,11.99
2023-04-29T23:21:16.706Z,11.91
2023-04-29T23:23:44.622Z,11.92
2023-04-29T23:26:12.524Z,11.65
2023-04-29T23:28:40.367Z,11.63
2023-04-29T23:31:09.712Z,11.63
2023-04-29T23:33:37.607Z,11.66
2023-04-29T23:36:06.247Z,11.61
2023-04-29T23:38:34.147Z,11.39
2023-04-29T23:41:02.001Z,11.37
2023-04-29T23:43:29.947Z,11.33
2023-04-29T23:45:57.814Z,11.31
2023-04-29T23:48:27.113Z,11.36
2023-04-29T23:50:55.011Z,11.35
2023-04-29T23:53:22.906Z,11.32
2023-04-29T23:55:50.840Z,11.26
2023-04-29T23:58:18.700Z,11.18
